Terminal Aerodrome Forecast
Issued by NWS

Current Version | Previous Version | Text Only | Print | Product List | Glossary Off
Versions: 1 2 3 4 5 6 7 8 9 10 11 12 13 14 15 16 17 18 19 20 21 22 23 24 25 26

000
FTUS41 KRLX 270208 AAA
TAFCKB
TAF AMD
KCKB 270208Z 2702/2724 18005KT P6SM SCT035 BKN080
     FM270400 17005KT 3SM TSRA BR BKN030CB BKN070
      TEMPO 2704/2705 25015G30KT 1SM +TSRA BKN020CB
     FM270600 19004KT 4SM SHRA BR VCTS SCT001 BKN030CB
     FM270800 20005KT 4SM BR SCT001 BKN020
     FM271400 22007KT P6SM BKN025=

USA.gov is the U.S. government's official web portal to all federal, state and local government web resources and services.